sensor_id;sensor_type;location;lat;lon;timestamp;pressure;altitude;pressure_sealevel;temperature;humidity
55517;BME280;41724;51.176;-0.708;2022-11-02T00:01:27;100776.24;;;8.67;75.26
55517;BME280;41724;51.176;-0.708;2022-11-02T00:03:55;100780.52;;;8.96;75.59
55517;BME280;41724;51.176;-0.708;2022-11-02T00:06:23;100780.46;;;9.02;74.54
55517;BME280;41724;51.176;-0.708;2022-11-02T00:08:50;100785.76;;;9.48;72.14
55517;BME280;41724;51.176;-0.708;2022-11-02T00:11:17;100791.55;;;9.07;73.69
55517;BME280;41724;51.176;-0.708;2022-11-02T00:13:44;100802.76;;;9.07;74.29
55517;BME280;41724;51.176;-0.708;2022-11-02T00:16:13;100813.86;;;8.79;75.36
55517;BME280;41724;51.176;-0.708;2022-11-02T00:18:43;100826.14;;;9.22;74.83
55517;BME280;41724;51.176;-0.708;2022-11-02T00:21:12;100835.58;;;9.01;76.33
55517;BME280;41724;51.176;-0.708;2022-11-02T00:23:41;100830.74;;;8.84;76.94
55517;BME280;41724;51.176;-0.708;2022-11-02T00:26:08;100832.63;;;8.82;74.75
55517;BME280;41724;51.176;-0.708;2022-11-02T00:28:35;100842.36;;;8.85;75.68
55517;BME280;41724;51.176;-0.708;2022-11-02T00:31:03;100840.21;;;8.81;75.89
55517;BME280;41724;51.176;-0.708;2022-11-02T00:33:30;100845.53;;;8.67;77.37
55517;BME280;41724;51.176;-0.708;2022-11-02T00:35:57;100848.30;;;8.86;73.94
55517;BME280;41724;51.176;-0.708;2022-11-02T00:38:24;100856.26;;;9.28;74.10
55517;BME280;41724;51.176;-0.708;2022-11-02T00:40:52;100856.53;;;8.84;75.20
55517;BME280;41724;51.176;-0.708;2022-11-02T00:43:19;100877.27;;;8.57;76.33
55517;BME280;41724;51.176;-0.708;2022-11-02T00:45:46;100878.75;;;9.11;72.59
55517;BME280;41724;51.176;-0.708;2022-11-02T00:48:13;100881.67;;;8.54;74.96
55517;BME280;41724;51.176;-0.708;2022-11-02T00:50:41;100882.48;;;9.51;72.32
55517;BME280;41724;51.176;-0.708;2022-11-02T00:53:08;100880.55;;;9.71;72.09
55517;BME280;41724;51.176;-0.708;2022-11-02T00:55:35;100890.12;;;9.25;70.69
55517;BME280;41724;51.176;-0.708;2022-11-02T00:58:03;100891.12;;;9.69;70.72
55517;BME280;41724;51.176;-0.708;2022-11-02T01:00:30;100900.98;;;9.94;70.39
55517;BME280;41724;51.176;-0.708;2022-11-02T01:02:59;100908.84;;;10.13;70.86
55517;BME280;41724;51.176;-0.708;2022-11-02T01:05:26;100918.65;;;8.99;74.11
55517;BME280;41724;51.176;-0.708;2022-11-02T01:07:53;100913.47;;;9.76;71.07
55517;BME280;41724;51.176;-0.708;2022-11-02T01:10:21;100920.00;;;9.66;71.23
55517;BME280;41724;51.176;-0.708;2022-11-02T01:12:48;100919.54;;;10.34;67.68
55517;BME280;41724;51.176;-0.708;2022-11-02T01:15:15;100930.82;;;10.01;69.35
55517;BME280;41724;51.176;-0.708;2022-11-02T01:17:43;100935.63;;;9.88;70.57
55517;BME280;41724;51.176;-0.708;2022-11-02T01:20:10;100936.92;;;9.46;73.33
55517;BME280;41724;51.176;-0.708;2022-11-02T01:22:37;100947.87;;;9.20;74.70
55517;BME280;41724;51.176;-0.708;2022-11-02T01:25:05;100946.75;;;8.78;76.71
55517;BME280;41724;51.176;-0.708;2022-11-02T01:27:32;100958.39;;;8.64;75.25
55517;BME280;41724;51.176;-0.708;2022-11-02T01:29:59;100952.71;;;9.44;72.92
55517;BME280;41724;51.176;-0.708;2022-11-02T01:32:28;100961.64;;;9.68;70.32
55517;BME280;41724;51.176;-0.708;2022-11-02T01:34:55;100960.67;;;10.42;68.58
55517;BME280;41724;51.176;-0.708;2022-11-02T01:37:23;100966.92;;;10.37;68.35
55517;BME280;41724;51.176;-0.708;2022-11-02T01:39:50;100974.82;;;9.32;71.28
55517;BME280;41724;51.176;-0.708;2022-11-02T01:42:19;100976.30;;;9.78;71.90
55517;BME280;41724;51.176;-0.708;2022-11-02T01:44:47;100981.21;;;9.64;70.77
55517;BME280;41724;51.176;-0.708;2022-11-02T01:47:20;100988.36;;;10.09;68.53
55517;BME280;41724;51.176;-0.708;2022-11-02T01:49:52;100994.67;;;9.81;67.72
55517;BME280;41724;51.176;-0.708;2022-11-02T01:52:25;100993.15;;;10.69;64.93
55517;BME280;41724;51.176;-0.708;2022-11-02T01:54:56;101001.85;;;10.72;64.41
55517;BME280;41724;51.176;-0.708;2022-11-02T01:57:26;101004.26;;;10.75;65.42
55517;BME280;41724;51.176;-0.708;2022-11-02T01:59:56;100999.55;;;11.42;64.85
55517;BME280;41724;51.176;-0.708;2022-11-02T02:02:26;101003.67;;;10.89;64.74
55517;BME280;41724;51.176;-0.708;2022-11-02T02:04:57;101006.19;;;10.79;63.19
55517;BME280;41724;51.176;-0.708;2022-11-02T02:07:25;101008.72;;;10.44;63.72
55517;BME280;41724;51.176;-0.708;2022-11-02T02:09:53;101017.58;;;9.43;67.44
55517;BME280;41724;51.176;-0.708;2022-11-02T02:12:22;101011.35;;;10.16;65.87
55517;BME280;41724;51.176;-0.708;2022-11-02T02:14:50;101022.20;;;10.41;66.13
55517;BME280;41724;51.176;-0.708;2022-11-02T02:17:27;101027.04;;;10.60;66.62
55517;BME280;41724;51.176;-0.708;2022-11-02T02:20:03;101027.15;;;10.92;64.99
55517;BME280;41724;51.176;-0.708;2022-11-02T02:22:49;101032.41;;;11.41;64.33
55517;BME280;41724;51.176;-0.708;2022-11-02T02:25:31;101031.38;;;11.00;62.02
55517;BME280;41724;51.176;-0.708;2022-11-02T02:28:10;101032.90;;;10.96;62.67
55517;BME280;41724;51.176;-0.708;2022-11-02T02:30:45;101041.19;;;10.55;64.97
55517;BME280;41724;51.176;-0.708;2022-11-02T02:33:21;101043.65;;;10.28;65.34
55517;BME280;41724;51.176;-0.708;2022-11-02T02:35:57;101048.09;;;10.08;65.65
55517;BME280;41724;51.176;-0.708;2022-11-02T02:38:31;101049.52;;;10.18;64.23
55517;BME280;41724;51.176;-0.708;2022-11-02T02:41:08;101048.08;;;9.99;66.52
55517;BME280;41724;51.176;-0.708;2022-11-02T02:43:40;101053.53;;;10.23;64.97
55517;BME280;41724;51.176;-0.708;2022-11-02T02:46:10;101058.41;;;9.94;64.76
55517;BME280;41724;51.176;-0.708;2022-11-02T02:48:41;101062.88;;;10.18;64.62
55517;BME280;41724;51.176;-0.708;2022-11-02T02:51:13;101061.98;;;10.47;65.57
55517;BME280;41724;51.176;-0.708;2022-11-02T02:53:44;101065.17;;;10.32;64.44
55517;BME280;41724;51.176;-0.708;2022-11-02T02:56:16;101064.16;;;10.31;65.39
55517;BME280;41724;51.176;-0.708;2022-11-02T02:58:49;101071.11;;;9.90;67.98
55517;BME280;41724;51.176;-0.708;2022-11-02T03:01:18;101070.49;;;10.42;66.19
55517;BME280;41724;51.176;-0.708;2022-11-02T03:03:46;101078.37;;;10.14;66.29
55517;BME280;41724;51.176;-0.708;2022-11-02T03:06:17;101090.90;;;8.87;68.75
55517;BME280;41724;51.176;-0.708;2022-11-02T03:08:50;101087.45;;;10.20;66.09
55517;BME280;41724;51.176;-0.708;2022-11-02T03:11:22;101089.10;;;9.95;64.86
55517;BME280;41724;51.176;-0.708;2022-11-02T03:14:05;101091.21;;;10.35;64.79
55517;BME280;41724;51.176;-0.708;2022-11-02T03:16:42;101101.04;;;9.86;65.78
55517;BME280;41724;51.176;-0.708;2022-11-02T03:19:18;101098.38;;;9.69;67.38
55517;BME280;41724;51.176;-0.708;2022-11-02T03:21:52;101095.64;;;9.59;67.50
55517;BME280;41724;51.176;-0.708;2022-11-02T03:24:26;101094.95;;;9.38;68.58
55517;BME280;41724;51.176;-0.708;2022-11-02T03:27:05;101095.02;;;10.16;65.29
55517;BME280;41724;51.176;-0.708;2022-11-02T03:29:38;101097.91;;;9.87;66.76
55517;BME280;41724;51.176;-0.708;2022-11-02T03:32:11;101099.96;;;10.06;66.00
55517;BME280;41724;51.176;-0.708;2022-11-02T03:34:48;101099.96;;;9.44;67.12
55517;BME280;41724;51.176;-0.708;2022-11-02T03:37:21;101105.81;;;9.70;66.73
55517;BME280;41724;51.176;-0.708;2022-11-02T03:39:53;101107.63;;;9.97;66.12
55517;BME280;41724;51.176;-0.708;2022-11-02T03:42:25;101108.82;;;9.59;65.71
55517;BME280;41724;51.176;-0.708;2022-11-02T03:44:57;101117.39;;;9.41;66.19
55517;BME280;41724;51.176;-0.708;2022-11-02T03:47:25;101121.78;;;9.33;67.89
55517;BME280;41724;51.176;-0.708;2022-11-02T03:49:54;101124.68;;;9.94;66.67
55517;BME280;41724;51.176;-0.708;2022-11-02T03:52:25;101135.43;;;10.30;65.36
55517;BME280;41724;51.176;-0.708;2022-11-02T03:55:02;101132.99;;;9.41;68.35
55517;BME280;41724;51.176;-0.708;2022-11-02T03:57:34;101135.69;;;10.47;66.46
55517;BME280;41724;51.176;-0.708;2022-11-02T04:00:07;101140.53;;;10.87;64.78
55517;BME280;41724;51.176;-0.708;2022-11-02T04:02:35;101144.69;;;10.17;64.36
55517;BME280;41724;51.176;-0.708;2022-11-02T04:05:04;101145.61;;;9.46;67.16
55517;BME280;41724;51.176;-0.708;2022-11-02T04:07:33;101141.02;;;10.52;66.18
55517;BME280;41724;51.176;-0.708;2022-11-02T04:10:02;101143.34;;;10.46;63.65
55517;BME280;41724;51.176;-0.708;2022-11-02T04:12:29;101151.89;;;9.69;64.39
55517;BME280;41724;51.176;-0.708;2022-11-02T04:14:57;101148.86;;;10.52;63.38
55517;BME280;41724;51.176;-0.708;2022-11-02T04:17:24;101156.25;;;10.15;64.62
55517;BME280;41724;51.176;-0.708;2022-11-02T04:19:51;101158.07;;;9.46;66.40
55517;BME280;41724;51.176;-0.708;2022-11-02T04:22:19;101162.93;;;9.94;63.87
55517;BME280;41724;51.176;-0.708;2022-11-02T04:24:46;101173.41;;;9.22;66.54
55517;BME280;41724;51.176;-0.708;2022-11-02T04:27:13;101175.93;;;8.71;68.47
55517;BME280;41724;51.176;-0.708;2022-11-02T04:29:41;101177.98;;;8.98;67.88
55517;BME280;41724;51.176;-0.708;2022-11-02T04:32:08;101183.10;;;9.51;67.38
55517;BME280;41724;51.176;-0.708;2022-11-02T04:34:35;101185.53;;;9.27;67.52
55517;BME280;41724;51.176;-0.708;2022-11-02T04:37:03;101185.83;;;9.28;67.56
55517;BME280;41724;51.176;-0.708;2022-11-02T04:39:30;101192.18;;;9.47;66.98
55517;BME280;41724;51.176;-0.708;2022-11-02T04:41:57;101196.13;;;10.09;65.71
55517;BME280;41724;51.176;-0.708;2022-11-02T04:44:24;101199.62;;;8.58;68.81
55517;BME280;41724;51.176;-0.708;2022-11-02T04:46:52;101198.93;;;9.31;67.48
55517;BME280;41724;51.176;-0.708;2022-11-02T04:49:19;101200.90;;;9.96;66.69
55517;BME280;41724;51.176;-0.708;2022-11-02T04:51:46;101211.58;;;9.99;66.51
55517;BME280;41724;51.176;-0.708;2022-11-02T04:54:13;101218.09;;;9.61;65.30
55517;BME280;41724;51.176;-0.708;2022-11-02T04:56:41;101219.37;;;9.63;66.92
55517;BME280;41724;51.176;-0.708;2022-11-02T04:59:08;101219.47;;;9.74;65.44
55517;BME280;41724;51.176;-0.708;2022-11-02T05:01:35;101212.32;;;10.11;63.24
55517;BME280;41724;51.176;-0.708;2022-11-02T05:04:03;101213.96;;;10.41;64.37
55517;BME280;41724;51.176;-0.708;2022-11-02T05:06:31;101217.88;;;10.11;63.42
55517;BME280;41724;51.176;-0.708;2022-11-02T05:08:58;101220.65;;;9.09;68.35
55517;BME280;41724;51.176;-0.708;2022-11-02T05:11:25;101225.34;;;8.95;69.37
55517;BME280;41724;51.176;-0.708;2022-11-02T05:13:53;101228.48;;;9.60;66.85
55517;BME280;41724;51.176;-0.708;2022-11-02T05:16:20;101233.17;;;9.82;64.87
55517;BME280;41724;51.176;-0.708;2022-11-02T05:18:47;101232.71;;;9.08;67.60
55517;BME280;41724;51.176;-0.708;2022-11-02T05:21:15;101238.57;;;9.16;66.51
55517;BME280;41724;51.176;-0.708;2022-11-02T05:23:42;101240.04;;;9.89;65.55
55517;BME280;41724;51.176;-0.708;2022-11-02T05:26:11;101237.62;;;9.30;67.94
55517;BME280;41724;51.176;-0.708;2022-11-02T05:28:38;101238.67;;;10.08;63.87
55517;BME280;41724;51.176;-0.708;2022-11-02T05:31:05;101238.87;;;10.06;63.33
55517;BME280;41724;51.176;-0.708;2022-11-02T05:33:33;101235.01;;;10.53;61.52
55517;BME280;41724;51.176;-0.708;2022-11-02T05:36:00;101235.03;;;10.43;64.36
55517;BME280;41724;51.176;-0.708;2022-11-02T05:38:28;101235.15;;;9.78;63.99
55517;BME280;41724;51.176;-0.708;2022-11-02T05:40:57;101228.82;;;9.50;66.53
55517;BME280;41724;51.176;-0.708;2022-11-02T05:43:25;101223.44;;;9.59;65.68
55517;BME280;41724;51.176;-0.708;2022-11-02T05:45:54;101223.16;;;9.39;65.12
55517;BME280;41724;51.176;-0.708;2022-11-02T05:48:22;101226.07;;;10.09;64.51
55517;BME280;41724;51.176;-0.708;2022-11-02T05:50:54;101229.26;;;9.58;65.01
55517;BME280;41724;51.176;-0.708;2022-11-02T05:53:21;101226.54;;;10.29;62.67
55517;BME280;41724;51.176;-0.708;2022-11-02T05:55:48;101231.36;;;9.36;65.71
55517;BME280;41724;51.176;-0.708;2022-11-02T05:58:15;101223.26;;;10.74;63.08
55517;BME280;41724;51.176;-0.708;2022-11-02T06:00:43;101227.20;;;10.29;62.46
55517;BME280;41724;51.176;-0.708;2022-11-02T06:03:10;101227.22;;;10.56;63.43
55517;BME280;41724;51.176;-0.708;2022-11-02T06:05:37;101216.71;;;10.94;63.49
55517;BME280;41724;51.176;-0.708;2022-11-02T06:08:05;101215.15;;;11.83;60.17
55517;BME280;41724;51.176;-0.708;2022-11-02T06:10:32;101219.04;;;11.57;60.23
55517;BME280;41724;51.176;-0.708;2022-11-02T06:13:01;101215.22;;;12.23;59.29
55517;BME280;41724;51.176;-0.708;2022-11-02T06:15:30;101210.65;;;12.28;57.21
55517;BME280;41724;51.176;-0.708;2022-11-02T06:17:57;101209.80;;;11.73;57.73
55517;BME280;41724;51.176;-0.708;2022-11-02T06:20:25;101211.72;;;11.79;58.88
55517;BME280;41724;51.176;-0.708;2022-11-02T06:22:52;101211.84;;;11.87;57.98
55517;BME280;41724;51.176;-0.708;2022-11-02T06:25:20;101209.98;;;12.32;58.18
55517;BME280;41724;51.176;-0.708;2022-11-02T06:27:51;101215.00;;;11.50;58.26
55517;BME280;41724;51.176;-0.708;2022-11-02T06:30:18;101215.25;;;12.21;56.97
55517;BME280;41724;51.176;-0.708;2022-11-02T06:32:46;101222.69;;;11.93;57.74
55517;BME280;41724;51.176;-0.708;2022-11-02T06:35:14;101220.11;;;10.86;60.01
55517;BME280;41724;51.176;-0.708;2022-11-02T06:37:41;101221.36;;;11.70;59.58
55517;BME280;41724;51.176;-0.708;2022-11-02T06:40:09;101228.51;;;11.98;58.33
55517;BME280;41724;51.176;-0.708;2022-11-02T06:42:36;101224.33;;;11.91;57.34
55517;BME280;41724;51.176;-0.708;2022-11-02T06:45:04;101222.28;;;12.47;57.32
55517;BME280;41724;51.176;-0.708;2022-11-02T06:47:33;101229.23;;;12.01;57.46
55517;BME280;41724;51.176;-0.708;2022-11-02T06:50:02;101229.88;;;12.30;56.95
55517;BME280;41724;51.176;-0.708;2022-11-02T06:52:29;101233.36;;;11.91;57.61
55517;BME280;41724;51.176;-0.708;2022-11-02T06:54:56;101228.37;;;11.62;58.99
55517;BME280;41724;51.176;-0.708;2022-11-02T06:57:23;101224.17;;;12.12;58.93
55517;BME280;41724;51.176;-0.708;2022-11-02T06:59:51;101220.33;;;12.39;58.02
55517;BME280;41724;51.176;-0.708;2022-11-02T07:02:18;101216.28;;;12.93;56.97
55517;BME280;41724;51.176;-0.708;2022-11-02T07:04:45;101217.87;;;12.74;55.97
55517;BME280;41724;51.176;-0.708;2022-11-02T07:07:13;101220.79;;;12.91;55.82
55517;BME280;41724;51.176;-0.708;2022-11-02T07:09:40;101219.44;;;13.05;55.44
55517;BME280;41724;51.176;-0.708;2022-11-02T07:12:07;101224.16;;;12.94;55.67
55517;BME280;41724;51.176;-0.708;2022-11-02T07:14:34;101222.68;;;12.87;55.81
55517;BME280;41724;51.176;-0.708;2022-11-02T07:17:02;101219.63;;;13.00;55.50
55517;BME280;41724;51.176;-0.708;2022-11-02T07:19:29;101224.44;;;12.34;57.79
55517;BME280;41724;51.176;-0.708;2022-11-02T07:21:56;101225.20;;;11.79;60.53
55517;BME280;41724;51.176;-0.708;2022-11-02T07:24:24;101228.35;;;11.94;59.66
55517;BME280;41724;51.176;-0.708;2022-11-02T07:26:51;101230.68;;;11.54;60.29
55517;BME280;41724;51.176;-0.708;2022-11-02T07:29:18;101226.33;;;11.00;63.10
55517;BME280;41724;51.176;-0.708;2022-11-02T07:31:45;101230.56;;;10.92;62.52
55517;BME280;41724;51.176;-0.708;2022-11-02T07:34:13;101233.85;;;10.98;63.31
55517;BME280;41724;51.176;-0.708;2022-11-02T07:36:40;101231.29;;;11.64;62.26
55517;BME280;41724;51.176;-0.708;2022-11-02T07:39:07;101233.30;;;11.86;62.83
55517;BME280;41724;51.176;-0.708;2022-11-02T07:41:35;101237.07;;;12.08;61.21
55517;BME280;41724;51.176;-0.708;2022-11-02T07:44:02;101233.94;;;12.19;61.14
55517;BME280;41724;51.176;-0.708;2022-11-02T07:46:29;101238.22;;;11.49;63.94
55517;BME280;41724;51.176;-0.708;2022-11-02T07:48:57;101232.51;;;11.36;63.69
55517;BME280;41724;51.176;-0.708;2022-11-02T07:51:24;101245.47;;;11.95;62.53
55517;BME280;41724;51.176;-0.708;2022-11-02T07:53:51;101237.03;;;12.40;61.93
55517;BME280;41724;51.176;-0.708;2022-11-02T07:56:18;101242.95;;;11.57;62.93
55517;BME280;41724;51.176;-0.708;2022-11-02T07:58:46;101245.99;;;12.02;62.59
55517;BME280;41724;51.176;-0.708;2022-11-02T08:01:13;101247.44;;;11.60;65.42
55517;BME280;41724;51.176;-0.708;2022-11-02T08:03:40;101247.11;;;11.33;65.36
55517;BME280;41724;51.176;-0.708;2022-11-02T08:06:07;101250.43;;;11.69;65.44
55517;BME280;41724;51.176;-0.708;2022-11-02T08:08:35;101252.41;;;11.56;63.89
55517;BME280;41724;51.176;-0.708;2022-11-02T08:11:05;101250.29;;;11.41;65.44
55517;BME280;41724;51.176;-0.708;2022-11-02T08:13:34;101248.32;;;11.75;64.42
55517;BME280;41724;51.176;-0.708;2022-11-02T08:16:01;101249.90;;;11.53;64.04
55517;BME280;41724;51.176;-0.708;2022-11-02T08:18:28;101251.63;;;12.12;64.20
55517;BME280;41724;51.176;-0.708;2022-11-02T08:20:56;101247.14;;;11.64;65.05
55517;BME280;41724;51.176;-0.708;2022-11-02T08:23:25;101247.23;;;12.08;63.17
55517;BME280;41724;51.176;-0.708;2022-11-02T08:25:53;101253.03;;;11.27;65.74
55517;BME280;41724;51.176;-0.708;2022-11-02T08:28:21;101253.80;;;12.40;64.22
55517;BME280;41724;51.176;-0.708;2022-11-02T08:30:49;101256.82;;;11.59;66.58
55517;BME280;41724;51.176;-0.708;2022-11-02T08:33:17;101253.24;;;11.01;68.26
55517;BME280;41724;51.176;-0.708;2022-11-02T08:35:46;101256.72;;;11.15;68.92
55517;BME280;41724;51.176;-0.708;2022-11-02T08:38:14;101255.60;;;11.06;68.06
55517;BME280;41724;51.176;-0.708;2022-11-02T08:40:42;101250.27;;;12.77;63.45
55517;BME280;41724;51.176;-0.708;2022-11-02T08:43:10;101247.86;;;12.76;62.04
55517;BME280;41724;51.176;-0.708;2022-11-02T08:45:39;101246.44;;;12.70;61.63
55517;BME280;41724;51.176;-0.708;2022-11-02T08:48:07;101247.32;;;12.33;63.48
55517;BME280;41724;51.176;-0.708;2022-11-02T08:50:34;101240.86;;;11.99;63.43
55517;BME280;41724;51.176;-0.708;2022-11-02T08:53:02;101233.94;;;11.39;65.57
55517;BME280;41724;51.176;-0.708;2022-11-02T08:55:29;101233.54;;;12.17;64.66
55517;BME280;41724;51.176;-0.708;2022-11-02T08:57:58;101230.08;;;12.66;62.35
55517;BME280;41724;51.176;-0.708;2022-11-02T09:00:26;101230.61;;;12.20;64.94
55517;BME280;41724;51.176;-0.708;2022-11-02T09:02:58;101230.25;;;12.29;63.87
55517;BME280;41724;51.176;-0.708;2022-11-02T09:05:26;101228.65;;;12.57;63.86
55517;BME280;41724;51.176;-0.708;2022-11-02T09:07:55;101223.77;;;11.92;66.24
55517;BME280;41724;51.176;-0.708;2022-11-02T09:10:21;101224.36;;;12.32;65.96
55517;BME280;41724;51.176;-0.708;2022-11-02T09:12:49;101224.82;;;12.61;64.59
55517;BME280;41724;51.176;-0.708;2022-11-02T09:15:16;101228.46;;;12.67;62.94
55517;BME280;41724;51.176;-0.708;2022-11-02T09:17:46;101232.94;;;11.75;67.38
55517;BME280;41724;51.176;-0.708;2022-11-02T09:20:14;101228.41;;;12.54;64.06
55517;BME280;41724;51.176;-0.708;2022-11-02T09:22:41;101236.64;;;12.07;64.93
55517;BME280;41724;51.176;-0.708;2022-11-02T09:25:09;101236.75;;;11.63;67.03
55517;BME280;41724;51.176;-0.708;2022-11-02T09:27:37;101235.50;;;12.60;64.78
55517;BME280;41724;51.176;-0.708;2022-11-02T09:30:05;101231.62;;;12.56;64.56
55517;BME280;41724;51.176;-0.708;2022-11-02T09:32:32;101229.01;;;12.19;65.68
55517;BME280;41724;51.176;-0.708;2022-11-02T09:35:00;101229.90;;;12.24;64.29
55517;BME280;41724;51.176;-0.708;2022-11-02T09:37:28;101229.42;;;12.17;65.48
55517;BME280;41724;51.176;-0.708;2022-11-02T09:39:55;101228.61;;;12.29;65.72
55517;BME280;41724;51.176;-0.708;2022-11-02T09:42:25;101222.35;;;13.27;60.84
55517;BME280;41724;51.176;-0.708;2022-11-02T09:44:58;101226.17;;;12.22;64.74
55517;BME280;41724;51.176;-0.708;2022-11-02T09:47:29;101219.37;;;12.85;63.02
55517;BME280;41724;51.176;-0.708;2022-11-02T09:49:59;101215.97;;;13.22;62.73
55517;BME280;41724;51.176;-0.708;2022-11-02T09:52:32;101220.88;;;12.83;62.61
55517;BME280;41724;51.176;-0.708;2022-11-02T09:55:05;101216.32;;;13.01;63.16
55517;BME280;41724;51.176;-0.708;2022-11-02T09:57:38;101214.66;;;14.23;60.87
55517;BME280;41724;51.176;-0.708;2022-11-02T10:00:10;101217.94;;;13.52;61.24
55517;BME280;41724;51.176;-0.708;2022-11-02T10:02:49;101212.80;;;13.84;60.59
55517;BME280;41724;51.176;-0.708;2022-11-02T10:05:30;101207.18;;;13.28;61.00
55517;BME280;41724;51.176;-0.708;2022-11-02T10:08:09;101210.89;;;13.51;60.77
55517;BME280;41724;51.176;-0.708;2022-11-02T10:10:47;101222.18;;;12.91;63.81
55517;BME280;41724;51.176;-0.708;2022-11-02T10:13:27;101207.62;;;12.34;64.58
55517;BME280;41724;51.176;-0.708;2022-11-02T10:15:59;101205.71;;;12.63;62.95
55517;BME280;41724;51.176;-0.708;2022-11-02T10:18:31;101202.77;;;14.36;58.83
55517;BME280;41724;51.176;-0.708;2022-11-02T10:21:04;101196.81;;;13.89;60.17
55517;BME280;41724;51.176;-0.708;2022-11-02T10:23:34;101196.01;;;14.71;59.76
55517;BME280;41724;51.176;-0.708;2022-11-02T10:26:03;101188.31;;;15.40;56.14
55517;BME280;41724;51.176;-0.708;2022-11-02T10:28:33;101179.00;;;15.57;56.41
55517;BME280;41724;51.176;-0.708;2022-11-02T10:31:03;101182.24;;;14.00;59.05
55517;BME280;41724;51.176;-0.708;2022-11-02T10:33:40;101185.42;;;13.64;61.86
55517;BME280;41724;51.176;-0.708;2022-11-02T10:36:18;101180.63;;;13.11;65.08
55517;BME280;41724;51.176;-0.708;2022-11-02T10:39:00;101186.35;;;13.84;61.26
55517;BME280;41724;51.176;-0.708;2022-11-02T10:41:44;101176.78;;;13.08;65.85
55517;BME280;41724;51.176;-0.708;2022-11-02T10:44:25;101171.69;;;13.16;65.44
55517;BME280;41724;51.176;-0.708;2022-11-02T10:47:03;101160.66;;;13.78;64.28
55517;BME280;41724;51.176;-0.708;2022-11-02T10:49:50;101158.82;;;13.40;63.54
55517;BME280;41724;51.176;-0.708;2022-11-02T10:52:23;101150.71;;;14.00;62.59
55517;BME280;41724;51.176;-0.708;2022-11-02T10:54:51;101149.39;;;14.12;59.61
55517;BME280;41724;51.176;-0.708;2022-11-02T10:57:21;101140.67;;;14.18;61.11
55517;BME280;41724;51.176;-0.708;2022-11-02T11:00:23;101139.26;;;14.90;59.42
55517;BME280;41724;51.176;-0.708;2022-11-02T11:03:09;101146.04;;;14.86;59.05
55517;BME280;41724;51.176;-0.708;2022-11-02T11:05:52;101133.07;;;14.62;59.67
55517;BME280;41724;51.176;-0.708;2022-11-02T11:08:30;101124.66;;;14.43;57.92
55517;BME280;41724;51.176;-0.708;2022-11-02T11:11:10;101127.81;;;14.10;58.25
55517;BME280;41724;51.176;-0.708;2022-11-02T11:13:37;101124.38;;;13.93;59.63
55517;BME280;41724;51.176;-0.708;2022-11-02T11:16:06;101115.08;;;14.42;59.11
55517;BME280;41724;51.176;-0.708;2022-11-02T11:18:34;101116.91;;;14.53;58.47
55517;BME280;41724;51.176;-0.708;2022-11-02T11:21:02;101106.38;;;14.55;56.29
55517;BME280;41724;51.176;-0.708;2022-11-02T11:23:29;101101.00;;;14.66;55.21
55517;BME280;41724;51.176;-0.708;2022-11-02T11:25:59;101097.04;;;15.15;56.63
55517;BME280;41724;51.176;-0.708;2022-11-02T11:28:29;101085.48;;;15.16;55.40
55517;BME280;41724;51.176;-0.708;2022-11-02T11:31:15;101070.68;;;14.85;56.59
55517;BME280;41724;51.176;-0.708;2022-11-02T11:33:46;101077.02;;;15.33;55.29
55517;BME280;41724;51.176;-0.708;2022-11-02T11:36:32;101069.63;;;14.36;56.66
55517;BME280;41724;51.176;-0.708;2022-11-02T11:39:03;101066.41;;;15.35;56.16
55517;BME280;41724;51.176;-0.708;2022-11-02T11:41:33;101064.79;;;15.72;55.55
55517;BME280;41724;51.176;-0.708;2022-11-02T11:44:01;101058.89;;;14.86;57.47
55517;BME280;41724;51.176;-0.708;2022-11-02T11:46:38;101040.10;;;14.46;58.68
55517;BME280;41724;51.176;-0.708;2022-11-02T11:49:18;101047.60;;;14.98;57.47
55517;BME280;41724;51.176;-0.708;2022-11-02T11:51:49;101045.79;;;14.09;58.29
55517;BME280;41724;51.176;-0.708;2022-11-02T11:54:21;101049.24;;;13.86;59.83
55517;BME280;41724;51.176;-0.708;2022-11-02T11:56:50;101035.80;;;13.89;59.66
55517;BME280;41724;51.176;-0.708;2022-11-02T11:59:24;101037.62;;;14.07;59.32
55517;BME280;41724;51.176;-0.708;2022-11-02T12:01:56;101031.96;;;13.96;61.32
55517;BME280;41724;51.176;-0.708;2022-11-02T12:04:27;101023.64;;;14.43;60.92
55517;BME280;41724;51.176;-0.708;2022-11-02T12:07:06;101018.47;;;14.02;58.38
55517;BME280;41724;51.176;-0.708;2022-11-02T12:09:40;101018.10;;;14.06;59.47
55517;BME280;41724;51.176;-0.708;2022-11-02T12:12:15;101010.35;;;13.79;59.21
55517;BME280;41724;51.176;-0.708;2022-11-02T12:14:54;101008.55;;;14.73;59.20
55517;BME280;41724;51.176;-0.708;2022-11-02T12:17:41;101004.00;;;14.71;58.53
55517;BME280;41724;51.176;-0.708;2022-11-02T12:20:25;100990.31;;;14.38;55.99
55517;BME280;41724;51.176;-0.708;2022-11-02T12:23:04;100995.05;;;14.11;57.51
55517;BME280;41724;51.176;-0.708;2022-11-02T12:25:42;100986.33;;;13.95;58.41
55517;BME280;41724;51.176;-0.708;2022-11-02T12:28:24;100995.83;;;13.27;57.93
55517;BME280;41724;51.176;-0.708;2022-11-02T12:31:01;100985.77;;;14.56;55.74
55517;BME280;41724;51.176;-0.708;2022-11-02T12:33:38;100990.79;;;15.00;55.84
55517;BME280;41724;51.176;-0.708;2022-11-02T12:36:17;100977.09;;;13.63;59.51
55517;BME280;41724;51.176;-0.708;2022-11-02T12:38:53;100975.38;;;13.49;59.59
55517;BME280;41724;51.176;-0.708;2022-11-02T12:41:33;100974.35;;;13.06;60.96
55517;BME280;41724;51.176;-0.708;2022-11-02T12:44:11;100974.90;;;13.43;60.04
55517;BME280;41724;51.176;-0.708;2022-11-02T12:46:43;100959.14;;;13.17;60.47
55517;BME280;41724;51.176;-0.708;2022-11-02T12:49:27;100950.14;;;13.55;59.36
55517;BME280;41724;51.176;-0.708;2022-11-02T12:52:03;100945.19;;;13.99;58.22
55517;BME280;41724;51.176;-0.708;2022-11-02T12:54:37;100933.89;;;15.14;55.87
55517;BME280;41724;51.176;-0.708;2022-11-02T12:57:10;100933.12;;;15.08;54.94
55517;BME280;41724;51.176;-0.708;2022-11-02T12:59:39;100923.22;;;14.80;54.60